Latest Weather Observations for Melbourne Airport

IDV60801

Issued at 8:31 pm EDT Friday 12 February 2016 (issued every 30 minutes, with the page automatically refreshed every 10 minutes)

About weather observations | Map of weather stations | Latest weather observations for VIC | Other Formats
Station Details ID: 086282 Name: MELBOURNE AIRPORT Lat: -37.67 Lon: 144.83 Height: 113.4 m
Data from the previous 72 hours. | See also: Recent months at Melbourne Airport
Date/Time
EDT
Temp
°C
App
Temp
°C
Dew
Point
Rel
Hum
%
Delta-T
°C
Wind Press
QNH
hPa
Press
MSL
hPa
Rain
since 9 am
mm
Dir
 
Spd
km/h
Gust
km/h
Spd
kts
Gust
kts
12/08:00pm 22.2 20.6 15.0 63 4.3 SSW 17 22 9 12 1012.1 1011.7 0.0
12/07:30pm 22.6 20.5 14.7 61 4.7 S 19 24 10 13 1011.9 1011.5 0.0
12/07:00pm 23.6 21.5 14.7 57 5.3 SSW 19 26 10 14 1011.8 1011.4 0.0
12/06:30pm 24.5 22.3 14.8 54 5.8 S 20 28 11 15 1011.7 1011.3 0.0
12/06:00pm 25.2 22.7 14.1 50 6.6 S 20 28 11 15 1011.7 1011.3 0.0
12/05:30pm 26.7 24.4 14.0 45 7.6 SSE 19 28 10 15 1011.6 1011.2 0.0
12/05:00pm 27.9 25.5 13.7 41 8.5 SSE 19 30 10 16 1011.8 1011.4 0.0
12/04:30pm 28.0 25.9 13.6 41 8.6 S 17 24 9 13 1012.1 1011.7 0.0
12/04:00pm 26.8 24.5 13.0 42 8.1 SSE 17 26 9 14 1012.5 1012.1 0.0
12/03:30pm 27.2 25.6 12.7 40 8.5 SE 13 26 7 14 1012.9 1012.5 0.0
12/03:00pm 27.1 25.4 12.6 40 8.5 S 13 20 7 11 1013.2 1012.8 0.0
12/02:30pm 26.4 24.1 11.8 40 8.4 SSE 15 24 8 13 1013.8 1013.4 0.0
12/02:00pm 26.0 23.9 12.4 42 7.9 SE 15 26 8 14 1014.1 1013.7 0.0
12/01:30pm 26.0 24.2 11.0 39 8.5 E 11 19 6 10 1014.4 1014.0 0.0
12/01:00pm 24.4 23.8 11.8 45 7.2 SW 6 11 3 6 1015.0 1014.6 0.0
12/12:30pm 24.5 23.4 12.1 46 7.1 S 9 15 5 8 1015.3 1014.9 0.0
12/12:00pm 22.2 20.9 12.4 53 5.6 SSE 11 19 6 10 1015.8 1015.4 0.0
12/11:30am 21.7 20.6 13.2 58 4.9 SE 11 19 6 10 1016.0 1015.6 0.0
12/11:00am 20.8 20.0 12.9 60 4.5 SE 9 17 5 9 1016.2 1015.9 0.0
12/10:30am 19.6 18.9 13.1 66 3.7 SSE 9 19 5 10 1016.4 1016.1 0.0
12/10:00am 19.0 18.7 13.4 70 3.2 ESE 7 13 4 7 1016.7 1016.4 0.0
12/09:30am 17.8 16.7 13.0 73 2.7 SSE 11 19 6 10 1016.9 1016.6 0.0
12/09:00am 17.7 16.1 12.9 73 2.7 E 13 19 7 10 1016.8 1016.5 0.0
12/08:30am 17.5 15.9 12.9 74 2.6 SE 13 17 7 9 1017.0 1016.7 0.0
12/08:00am 17.4 15.5 12.9 75 2.5 ESE 15 20 8 11 1016.9 1016.6 0.0
12/07:30am 17.4 15.8 12.9 75 2.5 SE 13 17 7 9 1016.9 1016.6 0.0
12/07:00am 17.3 15.4 13.0 76 2.4 SSE 15 20 8 11 1016.8 1016.5 0.0
12/06:30am 17.5 15.7 13.3 76 2.4 SE 15 19 8 10 1016.7 1016.4 0.0
12/06:00am 17.5 15.3 13.4 77 2.3 SE 17 20 9 11 1016.5 1016.2 0.0
12/05:30am 17.6 16.0 13.9 79 2.1 SE 15 19 8 10 1016.1 1015.8 0.0
12/05:00am 16.8 17.2 13.6 81 1.8 SW 4 7 2 4 1016.0 1015.6 0.0
12/04:30am 16.4 16.4 13.6 83 1.6 WSW 6 9 3 5 1016.2 1015.9 0.0
12/04:00am 15.8 15.2 13.5 86 1.3 W 9 13 5 7 1016.3 1016.0 0.0
12/03:30am 15.2 14.6 13.4 89 1.0 W 9 9 5 5 1016.2 1015.9 0.0
12/03:00am 14.8 14.0 13.0 89 1.0 W 9 9 5 5 1016.5 1016.2 0.0
12/02:30am 14.9 14.5 13.1 89 1.0 W 7 9 4 5 1016.6 1016.3 0.0
12/02:00am 15.6 14.9 13.3 86 1.3 S 9 13 5 7 1016.7 1016.4 0.0
12/01:30am 16.2 14.7 13.2 82 1.7 S 13 17 7 9 1017.0 1016.7 0.0
12/01:00am 16.5 15.1 13.3 81 1.8 S 13 15 7 8 1017.5 1017.2 0.0
12/12:30am 17.0 14.8 13.3 79 2.1 SSE 17 26 9 14 1017.7 1017.4 0.0
12/12:00am 17.5 14.9 13.2 76 2.4 SE 19 24 10 13 1017.7 1017.4 0.0
 
Date/Time
EDT
Temp
°C
App
Temp
°C
Dew
Point
Rel
Hum
%
Delta-T
°C
Wind Press
QNH
hPa
Press
MSL
hPa
Rain
since 9 am
mm
Dir
 
Spd
km/h
Gust
km/h
Spd
kts
Gust
kts
11/11:30pm 17.5 14.9 13.2 76 2.4 SSE 19 26 10 14 1018.1 1017.7 0.0
11/11:00pm 17.7 15.8 12.9 73 2.7 SSE 15 20 8 11 1017.9 1017.6 0.0
11/10:30pm 17.9 15.1 12.7 71 2.9 SSE 19 28 10 15 1018.2 1017.8 0.0
11/10:00pm 18.6 15.6 12.5 67 3.4 S 20 32 11 17 1017.9 1017.6 0.0
11/09:30pm 18.9 15.8 12.3 65 3.7 S 20 28 11 15 1017.4 1017.1 0.0
11/09:00pm 19.3 16.2 13.3 68 3.4 SSE 22 32 12 17 1016.6 1016.3 0.0
11/08:30pm 19.4 16.1 14.0 71 3.1 S 24 33 13 18 1016.4 1016.1 0.0
11/08:00pm 20.1 16.3 13.5 66 3.8 S 26 35 14 19 1016.4 1016.1 0.0
11/07:30pm 21.0 16.7 13.2 61 4.5 S 28 37 15 20 1016.2 1015.9 0.0
11/07:00pm 21.4 16.6 12.8 58 4.9 S 30 39 16 21 1015.9 1015.5 0.0
11/06:30pm 22.0 17.5 12.7 55 5.3 S 28 37 15 20 1015.5 1015.1 0.0
11/06:00pm 22.8 18.3 12.5 52 5.9 S 28 33 15 18 1015.4 1015.0 0.0
11/05:30pm 23.6 19.0 12.2 48 6.5 SSE 28 35 15 19 1015.3 1014.9 0.0
11/05:00pm 23.5 18.8 12.1 48 6.5 S 28 37 15 20 1015.3 1014.9 0.0
11/04:30pm 24.6 20.2 11.8 44 7.3 S 26 33 14 18 1015.3 1014.9 0.0
11/04:00pm 24.3 20.0 12.1 46 7.0 S 26 35 14 19 1015.3 1014.9 0.0
11/03:30pm 24.3 20.5 12.3 47 6.9 S 24 33 13 18 1015.2 1014.8 0.0
11/03:00pm 24.4 20.9 12.2 46 7.0 S 22 30 12 16 1015.2 1014.8 0.0
11/02:30pm 24.6 21.8 12.5 46 7.0 S 19 28 10 15 1015.5 1015.1 0.0
11/02:00pm 23.8 21.2 12.1 48 6.7 SSE 17 28 9 15 1015.7 1015.3 0.0
11/01:30pm 23.6 21.0 12.0 48 6.6 SSE 17 30 9 16 1015.8 1015.4 0.0
11/01:00pm 23.4 20.5 12.2 49 6.4 S 19 30 10 16 1015.9 1015.5 0.0
11/12:30pm 23.1 20.4 11.6 48 6.5 SSE 17 30 9 16 1016.3 1016.0 0.0
11/12:00pm 23.1 20.2 11.1 46 6.7 SSE 17 30 9 16 1016.8 1016.5 0.0
11/11:30am 21.3 17.8 11.0 51 5.7 SSE 20 28 11 15 1017.2 1016.9 0.0
11/11:00am 21.8 19.0 11.2 51 5.9 SSE 17 26 9 14 1017.4 1017.1 0.0
11/10:30am 20.2 17.0 11.8 58 4.7 SSE 20 30 11 16 1017.4 1017.1 0.0
11/10:00am 21.3 18.9 12.7 58 4.9 SSE 17 26 9 14 1017.4 1017.1 0.0
11/09:30am 19.3 16.9 12.5 64 3.8 SSE 17 22 9 12 1017.5 1017.2 0.0
11/09:00am 18.8 16.6 13.2 70 3.2 SE 17 24 9 13 1017.5 1017.2 0.0
11/08:30am 18.4 16.1 13.1 71 3.0 SE 17 20 9 11 1017.4 1017.1 0.0
11/08:00am 18.3 16.5 13.4 73 2.8 SE 15 20 8 11 1017.1 1016.8 0.0
11/07:30am 18.2 15.9 13.1 72 2.9 SSE 17 22 9 12 1016.9 1016.6 0.0
11/07:00am 17.9 15.6 13.1 73 2.7 SE 17 22 9 12 1016.6 1016.3 0.0
11/06:30am 18.0 16.2 13.2 73 2.7 SE 15 22 8 12 1016.3 1016.0 0.0
11/06:00am 18.0 16.2 13.2 73 2.7 SE 15 20 8 11 1015.9 1015.5 0.0
11/05:30am 18.0 15.8 13.4 74 2.6 SE 17 24 9 13 1015.8 1015.4 0.0
11/05:00am 18.2 16.3 13.1 72 2.9 SSE 15 19 8 10 1015.6 1015.2 0.0
11/04:30am 18.0 16.2 13.4 74 2.6 SSE 15 19 8 10 1015.5 1015.1 0.0
11/04:00am 18.1 16.7 13.3 73 2.7 SE 13 19 7 10 1015.5 1015.1 0.0
11/03:30am 18.0 17.0 13.4 74 2.6 SE 11 13 6 7 1015.5 1015.1 0.0
11/03:00am 18.0 17.0 13.4 74 2.6 SE 11 15 6 8 1015.7 1015.3 0.0
11/02:30am 18.2 17.2 13.3 73 2.8 SE 11 15 6 8 1016.0 1015.6 0.0
11/02:00am 18.2 16.8 13.3 73 2.8 S 13 15 7 8 1016.2 1015.9 0.0
11/01:30am 18.2 16.5 13.5 74 2.7 S 15 19 8 10 1016.4 1016.1 0.0
11/01:00am 18.2 16.8 13.5 74 2.7 S 13 17 7 9 1016.6 1016.3 0.0
11/12:30am 17.9 16.2 13.5 75 2.5 S 15 19 8 10 1016.8 1016.5 0.0
11/12:00am 18.1 16.9 14.1 77 2.3 S 13 19 7 10 1016.7 1016.4 0.0
 
Date/Time
EDT
Temp
°C
App
Temp
°C
Dew
Point
Rel
Hum
%
Delta-T
°C
Wind Press
QNH
hPa
Press
MSL
hPa
Rain
since 9 am
mm
Dir
 
Spd
km/h
Gust
km/h
Spd
kts
Gust
kts
10/11:30pm 17.5 16.2 13.8 79 2.1 SSW 13 15 7 8 1016.8 1016.5 0.0
10/11:00pm 17.3 16.0 13.6 79 2.1 SSW 13 17 7 9 1016.9 1016.6 0.0
10/10:30pm 17.8 15.6 13.4 75 2.5 SSW 17 20 9 11 1016.8 1016.5 0.0
10/10:00pm 17.7 15.9 13.3 75 2.5 SSW 15 24 8 13 1016.7 1016.4 0.0
10/09:30pm 18.0 15.8 13.4 74 2.6 SSW 17 26 9 14 1016.3 1016.0 0.0
10/09:00pm 18.2 15.4 13.3 73 2.8 S 20 30 11 16 1016.0 1015.6 0.0
10/08:30pm 19.0 15.8 13.2 69 3.3 S 22 30 12 16 1015.7 1015.3 0.0
10/08:00pm 20.1 17.1 12.7 62 4.2 S 20 26 11 14 1015.3 1014.9 0.0
10/07:30pm 21.2 18.4 12.6 58 4.9 S 19 26 10 14 1015.0 1014.6 0.0
10/07:00pm 22.2 19.1 12.1 52 5.7 S 20 28 11 15 1014.8 1014.4 0.0
10/06:30pm 22.9 19.8 12.2 51 6.1 SSE 20 28 11 15 1014.5 1014.1 0.0
10/06:00pm 23.4 20.4 12.6 50 6.2 SSE 20 28 11 15 1014.4 1014.0 0.0
10/05:30pm 23.8 20.2 11.8 47 6.8 S 22 30 12 16 1014.3 1013.9 0.0
10/05:00pm 23.4 20.0 11.3 46 6.8 S 20 26 11 14 1014.2 1013.8 0.0
10/04:30pm 24.1 20.7 10.4 42 7.6 S 19 30 10 16 1014.1 1013.7 0.0
10/04:00pm 24.0 21.2 10.0 41 7.7 S 15 24 8 13 1014.4 1014.0 0.0
10/03:30pm 23.8 20.6 11.2 45 7.1 S 19 28 10 15 1014.7 1014.3 0.0
10/03:00pm 24.0 20.7 11.7 46 7.0 S 20 32 11 17 1014.8 1014.4 0.0
10/02:30pm 23.7 20.5 9.9 41 7.6 S 17 32 9 17 1015.0 1014.6 0.0
10/02:00pm 23.6 20.1 10.2 42 7.4 S 19 26 10 14 1015.1 1014.7 0.0
10/01:30pm 23.6 20.4 11.8 47 6.7 SSE 20 32 11 17 1015.3 1014.9 0.0
10/01:00pm 22.6 20.2 12.7 53 5.7 SSE 17 28 9 15 1015.4 1015.0 0.0
10/12:30pm 22.6 20.1 12.4 52 5.8 SSE 17 26 9 14 1015.6 1015.2 0.0
10/12:00pm 22.3 20.4 13.1 56 5.3 SSE 15 26 8 14 1015.9 1015.5 0.0
10/11:30am 21.5 20.3 12.9 58 4.9 SSE 11 20 6 11 1016.0 1015.6 0.0
10/11:00am 20.4 20.1 13.2 63 4.1 SW 7 13 4 7 1016.3 1016.0 0.0
10/10:30am 20.0 19.4 13.6 66 3.7 S 9 13 5 7 1016.7 1016.4 0.0
10/10:00am 19.2 18.6 13.4 69 3.3 SSW 9 17 5 9 1016.6 1016.3 0.0
10/09:30am 18.9 17.9 13.3 70 3.2 S 11 15 6 8 1016.7 1016.4 0.0
10/09:00am 18.4 17.4 13.3 72 2.9 SSW 11 15 6 8 1016.7 1016.4 0.0
10/08:30am 18.0 17.0 13.4 74 2.6 SSW 11 13 6 7 1016.5 1016.2 0.0
10/08:00am 17.8 16.9 13.8 77 2.3 SW 11 15 6 8 1016.0 1015.6 0.0
10/07:30am 17.8 17.2 13.6 76 2.4 SSW 9 11 5 6 1015.7 1015.3 0.0
10/07:00am 17.6 16.6 13.4 76 2.4 S 11 13 6 7 1015.6 1015.2 0.0
10/06:30am 17.4 16.4 13.3 77 2.3 SSW 11 17 6 9 1015.2 1014.8 0.0
10/06:00am 17.4 18.2 13.7 79 2.1 SW 2 11 1 6 1015.0 1014.6 0.0
10/05:30am 17.5 17.3 13.6 78 2.2 SW 7 11 4 6 1015.2 1014.8 0.0
10/05:00am 17.5 16.6 13.6 78 2.2 SSW 11 15 6 8 1015.4 1015.0 0.0
10/04:30am 17.5 16.1 13.4 77 2.3 SW 13 19 7 10 1015.6 1015.2 0.0
10/04:00am 17.5 17.0 13.8 79 2.1 SW 9 11 5 6 1015.6 1015.2 0.0
10/03:30am 17.4 16.6 13.9 80 2.0 SSW 11 17 6 9 1015.7 1015.3 0.0
10/03:00am 17.4 16.2 13.9 80 2.0 SW 13 17 7 9 1015.8 1015.4 0.0
10/02:30am 17.6 16.8 13.9 79 2.1 SW 11 15 6 8 1016.1 1015.8 0.0
10/02:00am 17.7 16.2 14.2 80 2.0 SW 15 19 8 10 1016.4 1016.1 0.0
10/01:30am 17.8 16.9 14.9 83 1.7 SW 13 17 7 9 1016.6 1016.3 0.0
10/01:00am 17.5 17.4 14.9 85 1.5 WSW 9 13 5 7 1016.9 1016.6 0.0
10/12:30am 16.4 15.8 14.7 90 1.0 WSW 11 13 6 7 1017.0 1016.7 0.0
10/12:21am 16.2 15.6 14.5 90 1.0 WSW 11 13 6 7 1017.0 1016.7 0.0
10/12:00am 15.5 15.1 14.1 91 0.8 W 9 11 5 6 1017.1 1016.8 0.0
 
Date/Time
EDT
Temp
°C
App
Temp
°C
Dew
Point
Rel
Hum
%
Delta-T
°C
Wind Press
QNH
hPa
Press
MSL
hPa
Rain
since 9 am
mm
Dir
 
Spd
km/h
Gust
km/h
Spd
kts
Gust
kts
09/11:30pm 16.4 15.7 14.3 87 1.2 WSW 11 13 6 7 1017.4 1017.1 0.0
09/11:00pm 17.1 16.5 14.7 86 1.4 SW 11 15 6 8 1017.6 1017.3 0.0
09/10:30pm 17.0 16.4 14.6 86 1.4 SW 11 13 6 7 1017.8 1017.5 0.0
09/10:00pm 17.3 16.6 14.3 82 1.7 SW 11 13 6 7 1017.8 1017.5 0.0
09/09:30pm 17.9 17.6 14.3 79 2.1 SSW 9 13 5 7 1017.6 1017.3 0.0
09/09:00pm 18.8 17.8 14.5 76 2.5 SSW 13 19 7 10 1017.7 1017.4 0.0

Other Formats:

Comma delimited format used in spreadsheet applications
http://www.bom.gov.au/fwo/IDV60801/IDV60801.94866.axf

JavaScript Object Notation format (JSON) in row-major order
http://www.bom.gov.au/fwo/IDV60801/IDV60801.94866.json